Julington Creek, Florida
Current Conditions -  °F | °C
As of 7:53 AM on Wednesday 22 Oct 2014 (Local Time) from KNIP Reporting Station
Few Clouds Few Clouds  
Wind Chill: 66°   Ceiling: Unl
Heat Index: 66°   Visibility: 10mi
Dew Point: 53°   Wind: 9mph
Humidity: 63%   Direction: 340°NNW
Pressure: 30"   Gusts: NA
Location:  30.0735°N, 81.5808°W
Report Text: KNIP 221153Z 34008KT 10SM FEW250 19/12 A3000 RMK AO2 SLP154 T01890117 10228 20189 53017
Loading
Personal Weather Stations






























Interactive Weather Map
Tropical Storm Tracking
New forecast layout! Learn more

10-Day Weather Forecast

Advertisements
Track Severe Weather on mobile